Time;durP1;ratioP1;P1;durP2;ratioP2;P2;SDS_P1;SDS_P2;PMS_P1;PMS_P2;Temp;Humidity;BMP_temperature;BMP_pressure;BME280_temperature;BME280_humidity;BME280_pressure;Samples;Min_cycle;Max_cycle;Signal;HPM_P1;HPM_P2
2024/02/22 00:02:20;;;;;;;5.30;4.80;;;;;;;3.45;100.00;101309.55;106007;1254;71769;-56
2024/02/22 00:04:47;;;;;;;4.80;4.30;;;;;;;3.44;100.00;101309.20;106131;1257;65426;-58
2024/02/22 00:07:16;;;;;;;5.40;4.10;;;;;;;3.45;100.00;101302.29;106020;1260;73236;-56
2024/02/22 00:09:43;;;;;;;6.30;4.40;;;;;;;3.47;100.00;101296.80;106296;1254;60782;-58
2024/02/22 00:12:10;;;;;;;5.20;4.20;;;;;;;3.47;100.00;101292.72;106032;1259;60006;-55
2024/02/22 00:14:40;;;;;;;4.90;4.30;;;;;;;3.48;100.00;101290.60;106047;1259;73964;-55
2024/02/22 00:17:07;;;;;;;4.70;3.50;;;;;;;3.49;100.00;101293.60;106102;1254;67151;-56
2024/02/22 00:19:35;;;;;;;6.50;3.40;;;;;;;3.50;100.00;101289.52;106178;1258;70844;-61
2024/02/22 00:22:03;;;;;;;4.20;3.50;;;;;;;3.51;100.00;101287.40;106108;1259;60374;-57
2024/02/22 00:24:30;;;;;;;4.20;3.30;;;;;;;3.52;100.00;101283.33;106128;1254;60603;-56
2024/02/22 00:26:57;;;;;;;5.50;3.80;;;;;;;3.54;100.00;101278.71;106098;1254;71543;-58
2024/02/22 00:29:25;;;;;;;8.10;4.30;;;;;;;3.54;100.00;101272.87;106137;1258;65754;-56
2024/02/22 00:31:54;;;;;;;4.60;4.20;;;;;;;3.54;100.00;101275.54;106092;1254;72295;-58
2024/02/22 00:34:22;;;;;;;4.30;3.90;;;;;;;3.54;100.00;101264.35;106099;1254;60373;-58
2024/02/22 00:36:49;;;;;;;4.60;4.10;;;;;;;3.54;100.00;101264.35;106413;1253;60504;-57
2024/02/22 00:39:17;;;;;;;3.60;3.30;;;;;;;3.53;100.00;101264.88;106170;1253;73950;-56
2024/02/22 00:41:44;;;;;;;3.20;3.00;;;;;;;3.53;100.00;101268.42;106120;1254;67042;-60
2024/02/22 00:44:12;;;;;;;3.30;3.00;;;;;;;3.52;100.00;101268.23;106088;1259;71463;-56
2024/02/22 00:46:40;;;;;;;3.10;2.80;;;;;;;3.52;100.00;101264.86;106866;1253;59657;-56
2024/02/22 00:49:07;;;;;;;2.50;2.30;;;;;;;3.53;100.00;101264.86;106040;1254;60578;-58
2024/02/22 00:51:35;;;;;;;5.10;3.30;;;;;;;3.53;100.00;101267.00;106132;1254;72763;-57
2024/02/22 00:54:02;;;;;;;3.00;2.20;;;;;;;3.53;100.00;101265.40;106012;1259;65489;-57
2024/02/22 00:56:30;;;;;;;4.60;3.20;;;;;;;3.53;100.00;101266.64;106057;1258;72865;-57
2024/02/22 00:58:57;;;;;;;3.70;3.30;;;;;;;3.53;100.00;101263.45;106029;1253;60921;-60
2024/02/22 01:01:26;;;;;;;3.70;3.10;;;;;;;3.54;100.00;101258.48;106099;1265;61223;-57
2024/02/22 01:03:54;;;;;;;4.90;3.30;;;;;;;3.55;100.00;101255.13;106067;1259;73848;-54
2024/02/22 01:06:22;;;;;;;4.10;3.40;;;;;;;3.56;100.00;101252.47;106132;1254;65544;-57
2024/02/22 01:08:49;;;;;;;6.30;5.00;;;;;;;3.57;100.00;101245.20;106050;1259;73037;-58
2024/02/22 01:11:17;;;;;;;7.20;5.60;;;;;;;3.58;100.00;101243.41;106077;1254;61390;-59
2024/02/22 01:13:48;;;;;;;6.70;6.00;;;;;;;3.58;100.00;101240.57;106109;1254;60504;-58
2024/02/22 01:16:18;;;;;;;7.80;6.70;;;;;;;3.57;100.00;101242.54;107079;1254;73825;-57
2024/02/22 01:18:46;;;;;;;6.80;5.90;;;;;;;3.56;100.00;101237.91;106200;1259;65872;-60
2024/02/22 01:21:14;;;;;;;5.90;5.40;;;;;;;3.56;100.00;101237.38;106131;1259;70521;-60
2024/02/22 01:23:41;;;;;;;6.00;5.40;;;;;;;3.55;100.00;101236.67;106094;1254;60459;-56
2024/02/22 01:26:08;;;;;;;11.90;7.60;;;;;;;3.54;100.00;101236.66;106179;1254;60505;-57
2024/02/22 01:28:36;;;;;;;8.30;7.40;;;;;;;3.53;100.00;101231.15;106146;1254;72653;-60
2024/02/22 01:31:03;;;;;;;6.80;6.10;;;;;;;3.53;100.00;101232.91;106115;1257;67502;-56
2024/02/22 01:33:31;;;;;;;6.30;5.20;;;;;;;3.54;100.00;101230.80;106079;1254;73011;-59
2024/02/22 01:35:58;;;;;;;6.70;4.60;;;;;;;3.56;100.00;101234.02;108984;1253;60813;-60
2024/02/22 01:38:25;;;;;;;5.60;4.70;;;;;;;3.58;100.00;101232.05;109125;1253;60454;-57
2024/02/22 01:40:53;;;;;;;5.10;4.40;;;;;;;3.60;100.00;101228.85;109041;1254;73819;-57
2024/02/22 01:43:20;;;;;;;7.00;6.40;;;;;;;3.62;100.00;101228.88;108996;1252;66430;-57
2024/02/22 01:45:47;;;;;;;5.90;5.40;;;;;;;3.64;100.00;101231.38;107700;1254;72622;-58
2024/02/22 01:48:17;;;;;;;7.30;5.40;;;;;;;3.65;100.00;101229.06;105970;1270;60488;-61
2024/02/22 01:50:52;;;;;;;6.00;5.50;;;;;;;3.67;100.00;101234.73;108416;1256;59884;-59
2024/02/22 01:53:20;;;;;;;;;;;;;;;3.68;100.00;101231.73;106122;1259;73967;-55
2024/02/22 01:55:48;;;;;;;8.00;4.60;;;;;;;3.68;100.00;101221.61;109053;1254;66759;-56
2024/02/22 01:58:16;;;;;;;8.40;5.40;;;;;;;3.69;100.00;101217.17;108525;1254;73109;-57
2024/02/22 02:00:43;;;;;;;5.80;5.20;;;;;;;3.70;100.00;101221.27;106028;1270;61083;-57
2024/02/22 02:03:11;;;;;;;4.00;3.70;;;;;;;3.71;100.00;101224.82;108992;1254;60137;-60
2024/02/22 02:05:39;;;;;;;4.40;4.00;;;;;;;3.70;100.00;101217.71;109014;1253;73936;-55
2024/02/22 02:08:06;;;;;;;4.30;3.90;;;;;;;3.70;100.00;101215.23;109140;1254;66966;-57
2024/02/22 02:10:34;;;;;;;3.90;3.60;;;;;;;3.71;100.00;101214.17;106386;1253;73265;-57
2024/02/22 02:13:02;;;;;;;5.80;4.10;;;;;;;3.72;100.00;101215.24;106183;1259;60296;-57
2024/02/22 02:15:30;;;;;;;3.60;3.20;;;;;;;3.72;100.00;101215.95;106156;1259;60961;-57
2024/02/22 02:17:57;;;;;;;3.10;2.90;;;;;;;3.73;100.00;101215.08;106100;1253;73956;-56
2024/02/22 02:20:26;;;;;;;5.80;3.40;;;;;;;3.73;100.00;101215.25;106158;1258;67056;-59
2024/02/22 02:22:55;;;;;;;3.20;2.90;;;;;;;3.72;100.00;101214.18;106180;1256;71426;-57
2024/02/22 02:25:25;;;;;;;4.20;3.00;;;;;;;3.72;100.00;101213.30;106571;1255;60776;-58
2024/02/22 02:27:52;;;;;;;7.30;4.80;;;;;;;3.71;100.00;101213.29;106396;1259;61186;-57
2024/02/22 02:30:20;;;;;;;7.00;4.90;;;;;;;3.71;100.00;101207.25;106085;1259;73930;-56
2024/02/22 02:32:47;;;;;;;5.60;5.10;;;;;;;3.70;100.00;101209.02;106134;1260;67483;-57
2024/02/22 02:35:15;;;;;;;5.50;5.00;;;;;;;3.69;100.00;101208.13;106057;1263;71684;-54
2024/02/22 02:37:42;;;;;;;6.80;4.90;;;;;;;3.68;100.00;101205.27;106235;1253;61506;-55
2024/02/22 02:40:10;;;;;;;4.40;4.00;;;;;;;3.64;100.00;101198.71;106132;1257;60217;-58
2024/02/22 02:42:37;;;;;;;5.40;4.70;;;;;;;3.62;100.00;101202.08;106113;1257;72662;-59
2024/02/22 02:45:05;;;;;;;5.60;5.10;;;;;;;3.60;100.00;101194.61;106665;1254;65692;-55
2024/02/22 02:47:34;;;;;;;5.20;4.70;;;;;;;3.58;100.00;101195.48;106042;1260;73133;-58
2024/02/22 02:50:01;;;;;;;7.30;5.60;;;;;;;3.56;100.00;101186.98;106118;1259;60478;-56
2024/02/22 02:52:29;;;;;;;5.00;4.50;;;;;;;3.55;100.00;101188.39;107404;1256;60469;-58
2024/02/22 02:54:56;;;;;;;4.30;3.70;;;;;;;3.54;100.00;101184.66;106144;1260;73952;-58
2024/02/22 02:57:23;;;;;;;5.70;4.00;;;;;;;3.53;100.00;101178.96;106124;1261;66833;-59
2024/02/22 02:59:51;;;;;;;5.20;4.70;;;;;;;3.52;100.00;101178.25;106139;1259;74823;-59
2024/02/22 03:02:20;;;;;;;6.00;4.80;;;;;;;3.52;100.00;101179.14;106050;1254;60818;-59
2024/02/22 03:04:48;;;;;;;5.80;5.30;;;;;;;3.53;100.00;101177.54;106377;1258;60393;-58
2024/02/22 03:07:15;;;;;;;7.40;5.30;;;;;;;3.53;100.00;101177.38;106026;1260;74421;-56
2024/02/22 03:09:42;;;;;;;6.60;6.00;;;;;;;3.54;100.00;101172.77;105935;1259;67377;-57
2024/02/22 03:12:10;;;;;;;11.40;6.70;;;;;;;3.54;100.00;101170.27;105944;1259;73645;-57
2024/02/22 03:14:37;;;;;;;7.70;6.80;;;;;;;3.54;100.00;101168.86;106144;1264;60358;-57
2024/02/22 03:17:05;;;;;;;8.20;7.00;;;;;;;3.55;100.00;101163.89;106064;1259;60141;-57
2024/02/22 03:19:32;;;;;;;11.00;7.60;;;;;;;3.54;100.00;101159.45;105932;1254;72888;-54
2024/02/22 03:22:00;;;;;;;12.10;9.20;;;;;;;3.54;100.00;101160.70;106098;1259;67325;-56
2024/02/22 03:24:27;;;;;;;9.70;7.80;;;;;;;3.53;100.00;101155.55;106056;1264;72735;-57
2024/02/22 03:26:54;;;;;;;8.70;7.80;;;;;;;3.52;100.00;101153.92;106051;1259;60504;-59
2024/02/22 03:29:21;;;;;;;8.50;7.60;;;;;;;3.50;100.00;101151.62;106053;1254;60937;-57
2024/02/22 03:31:49;;;;;;;8.40;7.60;;;;;;;3.48;100.00;101147.20;106065;1259;72903;-56
2024/02/22 03:34:16;;;;;;;9.30;7.20;;;;;;;3.47;100.00;101148.79;106075;1260;66056;-56
2024/02/22 03:36:46;;;;;;;7.70;6.70;;;;;;;3.46;100.00;101147.18;105993;1256;70456;-56
2024/02/22 03:39:13;;;;;;;9.30;8.10;;;;;;;3.46;100.00;101152.16;106150;1259;60940;-57
2024/02/22 03:41:41;;;;;;;7.70;7.00;;;;;;;3.46;100.00;101147.36;106078;1254;60393;-57
2024/02/22 03:44:08;;;;;;;8.50;7.70;;;;;;;3.47;100.00;101150.39;106424;1253;72644;-56
2024/02/22 03:46:37;;;;;;;9.80;8.90;;;;;;;3.49;100.00;101151.98;106053;1259;66757;-58
2024/02/22 03:49:04;;;;;;;8.90;8.00;;;;;;;3.50;100.00;101149.48;107777;1257;72431;-55
2024/02/22 03:51:32;;;;;;;10.70;7.60;;;;;;;3.51;100.00;101150.73;106079;1260;61105;-58
2024/02/22 03:54:00;;;;;;;10.10;9.00;;;;;;;3.51;100.00;101149.67;105989;1273;60412;-58
2024/02/22 03:56:27;;;;;;;10.10;9.20;;;;;;;3.52;100.00;101149.86;106082;1260;72683;-56
2024/02/22 03:58:55;;;;;;;11.20;9.20;;;;;;;3.52;100.00;101147.19;106037;1254;67025;-58
2024/02/22 04:01:22;;;;;;;9.40;8.40;;;;;;;3.52;100.00;101150.39;106487;1257;71833;-56
2024/02/22 04:03:49;;;;;;;11.60;9.90;;;;;;;3.53;100.00;101152.88;106043;1259;60523;-58
2024/02/22 04:06:17;;;;;;;10.30;9.30;;;;;;;3.54;100.00;101153.59;106023;1259;59894;-56
2024/02/22 04:08:45;;;;;;;9.50;8.40;;;;;;;3.55;100.00;101148.98;105976;1254;74857;-56
2024/02/22 04:11:12;;;;;;;9.90;8.90;;;;;;;3.57;100.00;101151.66;106101;1259;66790;-59
2024/02/22 04:13:40;;;;;;;9.50;8.60;;;;;;;3.59;100.00;101157.85;106159;1254;71449;-58
2024/02/22 04:16:08;;;;;;;8.60;7.80;;;;;;;3.61;100.00;101153.06;106089;1256;60486;-56
2024/02/22 04:18:36;;;;;;;10.70;9.60;;;;;;;3.63;100.00;101153.09;106111;1259;60419;-58
2024/02/22 04:21:03;;;;;;;11.00;9.80;;;;;;;3.65;100.00;101159.48;106844;1257;72642;-57
2024/02/22 04:23:31;;;;;;;10.50;9.30;;;;;;;3.67;100.00;101153.26;106125;1254;68324;-58
2024/02/22 04:25:58;;;;;;;10.10;8.40;;;;;;;3.68;100.00;101157.34;106072;1259;72914;-57
2024/02/22 04:28:25;;;;;;;9.70;8.80;;;;;;;3.69;100.00;101160.19;106046;1258;60489;-58
2024/02/22 04:30:53;;;;;;;9.40;8.40;;;;;;;3.69;100.00;101160.89;106069;1254;60735;-58
2024/02/22 04:33:20;;;;;;;10.70;8.80;;;;;;;3.70;100.00;101162.14;106001;1272;72551;-57
2024/02/22 04:35:48;;;;;;;12.80;8.50;;;;;;;3.70;100.00;101165.70;109023;1254;65787;-57
2024/02/22 04:38:18;;;;;;;10.50;9.20;;;;;;;3.70;100.00;101163.92;109013;1253;73040;-58
2024/02/22 04:40:45;;;;;;;11.10;9.60;;;;;;;3.71;100.00;101163.93;109010;1256;59603;-59
2024/02/22 04:43:13;;;;;;;10.40;9.30;;;;;;;3.72;100.00;101164.48;109099;1253;59167;-58
2024/02/22 04:45:41;;;;;;;12.00;9.50;;;;;;;3.74;100.00;101164.98;106914;1259;75941;-58
2024/02/22 04:48:08;;;;;;;11.20;8.30;;;;;;;3.75;100.00;101164.80;106134;1259;66801;-61
2024/02/22 04:50:36;;;;;;;9.70;8.40;;;;;;;3.77;100.00;101169.42;107439;1259;71764;-57
2024/02/22 04:53:06;;;;;;;11.40;9.30;;;;;;;3.79;100.00;101172.11;106120;1260;60062;-54
2024/02/22 04:55:34;;;;;;;9.20;8.30;;;;;;;3.81;100.00;101175.32;109070;1254;60532;-57
2024/02/22 04:58:04;;;;;;;10.40;8.10;;;;;;;3.83;100.00;101168.73;109004;1254;71828;-55
2024/02/22 05:00:31;;;;;;;10.00;8.70;;;;;;;3.84;100.00;101165.36;109051;1253;66002;-57
2024/02/22 05:02:59;;;;;;;7.50;6.80;;;;;;;3.87;100.00;101162.17;108739;1255;70133;-59
2024/02/22 05:05:26;;;;;;;12.40;8.70;;;;;;;3.90;100.00;101167.88;106085;1260;61413;-57
2024/02/22 05:07:54;;;;;;;9.60;8.60;;;;;;;3.90;100.00;101164.32;106048;1259;60396;-58
2024/02/22 05:10:22;;;;;;;10.50;9.30;;;;;;;3.90;100.00;101169.83;106102;1254;73122;-57
2024/02/22 05:12:50;;;;;;;13.80;10.60;;;;;;;3.90;100.00;101171.25;106205;1253;67096;-59
2024/02/22 05:15:18;;;;;;;12.20;10.20;;;;;;;3.91;100.00;101170.36;106078;1254;72710;-59
2024/02/22 05:17:45;;;;;;;14.40;11.30;;;;;;;3.90;100.00;101172.31;106079;1260;60480;-57
2024/02/22 05:20:13;;;;;;;10.50;8.70;;;;;;;3.89;100.00;101176.92;106148;1254;61339;-58
2024/02/22 05:22:40;;;;;;;9.90;8.70;;;;;;;3.88;100.00;101175.50;106064;1259;72215;-57
2024/02/22 05:25:09;;;;;;;10.10;8.50;;;;;;;3.87;100.00;101177.98;106175;1254;66161;-58
2024/02/22 05:27:36;;;;;;;10.20;9.10;;;;;;;3.87;100.00;101176.73;106404;1256;72340;-56
2024/02/22 05:30:07;;;;;;;10.40;8.80;;;;;;;3.88;100.00;101180.83;106115;1259;62633;-58
2024/02/22 05:32:34;;;;;;;10.30;9.10;;;;;;;3.91;100.00;101175.86;106391;1259;60784;-57
2024/02/22 05:35:02;;;;;;;11.00;8.70;;;;;;;3.94;100.00;101176.38;106111;1255;73068;-57
2024/02/22 05:37:29;;;;;;;10.40;9.20;;;;;;;3.95;100.00;101172.13;106351;1255;67194;-60
2024/02/22 05:40:00;;;;;;;12.40;8.80;;;;;;;3.98;100.00;101175.88;106674;1257;71600;-59
2024/02/22 05:42:28;;;;;;;13.40;9.10;;;;;;;4.00;100.00;101174.98;106180;1256;60621;-58
2024/02/22 05:44:55;;;;;;;12.90;10.10;;;;;;;4.01;100.00;101175.49;106295;1259;60249;-57
2024/02/22 05:47:23;;;;;;;10.90;9.80;;;;;;;4.03;100.00;101176.58;106124;1259;73911;-59
2024/02/22 05:49:51;;;;;;;10.70;9.30;;;;;;;4.03;100.00;101179.41;106095;1255;66223;-56
2024/02/22 05:52:18;;;;;;;11.20;9.60;;;;;;;4.04;100.00;101179.41;106080;1257;71485;-56
2024/02/22 05:54:45;;;;;;;13.30;9.40;;;;;;;4.04;100.00;101179.59;106106;1257;60390;-57
2024/02/22 05:57:14;;;;;;;12.40;10.60;;;;;;;4.04;100.00;101180.30;106072;1260;60899;-58
2024/02/22 05:59:41;;;;;;;9.70;8.70;;;;;;;4.03;100.00;101180.66;106282;1258;73762;-61
2024/02/22 06:02:08;;;;;;;11.00;9.80;;;;;;;4.03;100.00;101181.02;106077;1259;67296;-57
2024/02/22 06:04:36;;;;;;;11.10;9.70;;;;;;;4.03;100.00;101181.72;107469;1256;73745;-58
2024/02/22 06:07:03;;;;;;;15.70;10.40;;;;;;;4.03;100.00;101182.27;106064;1269;60513;-58
2024/02/22 06:09:31;;;;;;;11.20;9.50;;;;;;;4.04;100.00;101182.45;106336;1256;60603;-58
2024/02/22 06:11:58;;;;;;;12.10;9.80;;;;;;;4.06;100.00;101184.94;105972;1255;73798;-57
2024/02/22 06:14:27;;;;;;;11.30;10.00;;;;;;;4.07;100.00;101182.45;106073;1260;69134;-56
2024/02/22 06:16:56;;;;;;;12.10;9.50;;;;;;;4.10;100.00;101188.30;105938;1260;72752;-58
2024/02/22 06:19:23;;;;;;;11.90;10.10;;;;;;;4.11;100.00;101187.60;106144;1254;61372;-59
2024/02/22 06:21:51;;;;;;;11.80;9.70;;;;;;;4.14;100.00;101187.08;106344;1260;60463;-56
2024/02/22 06:24:18;;;;;;;11.30;9.70;;;;;;;4.16;100.00;101187.25;106043;1254;74824;-60
2024/02/22 06:26:46;;;;;;;10.10;8.70;;;;;;;4.19;100.00;101187.59;106126;1259;67139;-59
2024/02/22 06:29:13;;;;;;;11.70;9.20;;;;;;;4.22;100.00;101189.91;106123;1259;72745;-59
2024/02/22 06:31:41;;;;;;;14.90;10.00;;;;;;;4.25;100.00;101193.46;106042;1259;60634;-60
2024/02/22 06:34:09;;;;;;;11.70;10.50;;;;;;;4.28;100.00;101193.82;106225;1256;60732;-59
2024/02/22 06:36:36;;;;;;;12.90;10.60;;;;;;;4.31;100.00;101198.64;106129;1254;72660;-58
2024/02/22 06:39:04;;;;;;;14.10;10.90;;;;;;;4.34;100.00;101201.46;106105;1254;66384;-58
2024/02/22 06:41:31;;;;;;;11.60;9.90;;;;;;;4.37;100.00;101204.13;106139;1257;71458;-58
2024/02/22 06:44:00;;;;;;;13.60;10.50;;;;;;;4.39;100.00;101202.54;106182;1261;60545;-59
2024/02/22 06:46:28;;;;;;;12.00;9.70;;;;;;;4.42;100.00;101207.69;106441;1269;60458;-59
2024/02/22 06:48:55;;;;;;;14.80;10.70;;;;;;;4.46;100.00;101209.99;106074;1256;74004;-58
2024/02/22 06:51:22;;;;;;;13.90;9.60;;;;;;;4.50;100.00;101211.42;106097;1259;65746;-58
2024/02/22 06:53:50;;;;;;;16.10;10.30;;;;;;;4.55;100.00;101212.66;107367;1259;71732;-59
2024/02/22 06:56:17;;;;;;;15.30;10.40;;;;;;;4.60;100.00;101210.52;106132;1254;61071;-58
2024/02/22 06:58:45;;;;;;;12.10;10.60;;;;;;;4.66;100.00;101217.64;106092;1259;60285;-58
2024/02/22 07:01:12;;;;;;;14.20;11.80;;;;;;;4.70;100.00;101221.34;106057;1268;73824;-59
2024/02/22 07:03:40;;;;;;;15.50;11.90;;;;;;;4.73;100.00;101227.23;106117;1254;66956;-58
2024/02/22 07:06:07;;;;;;;12.90;11.50;;;;;;;4.76;100.00;101226.50;106092;1267;72761;-59
2024/02/22 07:08:35;;;;;;;13.80;11.10;;;;;;;4.79;100.00;101230.05;106081;1261;61975;-59
2024/02/22 07:11:04;;;;;;;15.40;12.10;;;;;;;4.81;100.00;101231.66;106015;1259;60469;-60
2024/02/22 07:13:32;;;;;;;14.70;11.40;;;;;;;4.84;100.00;101232.01;106125;1260;76727;-60
2024/02/22 07:16:00;;;;;;;15.10;12.80;;;;;;;4.87;100.00;101235.73;106778;1259;65664;-59
2024/02/22 07:18:27;;;;;;;13.00;11.50;;;;;;;4.89;100.00;101236.45;106190;1259;73068;-59
2024/02/22 07:20:57;;;;;;;15.60;13.40;;;;;;;4.92;100.00;101238.77;106035;1260;60619;-60
2024/02/22 07:23:24;;;;;;;19.20;13.80;;;;;;;4.96;100.00;101241.77;106090;1260;60396;-60
2024/02/22 07:25:51;;;;;;;14.80;11.80;;;;;;;5.01;100.00;101242.66;106124;1254;73896;-59
2024/02/22 07:28:20;;;;;;;18.30;13.60;;;;;;;5.05;100.00;101246.55;106005;1260;65866;-58
2024/02/22 07:30:48;;;;;;;15.00;11.50;;;;;;;5.09;100.00;101249.59;106069;1257;72606;-58
2024/02/22 07:33:16;;;;;;;15.10;13.50;;;;;;;5.13;100.00;101253.65;105979;1257;60770;-59
2024/02/22 07:35:44;;;;;;;17.90;14.60;;;;;;;5.19;100.00;101254.54;108650;1253;58507;-60
2024/02/22 07:38:11;;;;;;;18.20;14.60;;;;;;;5.25;100.00;101261.11;106055;1259;73959;-60
2024/02/22 07:40:39;;;;;;;17.00;15.00;;;;;;;5.30;100.00;101269.09;106098;1270;65873;-60
2024/02/22 07:43:06;;;;;;;18.90;15.30;;;;;;;5.37;100.00;101271.20;106093;1263;72651;-59
2024/02/22 07:45:33;;;;;;;22.40;17.60;;;;;;;5.44;100.00;101279.55;106044;1270;60444;-57
2024/02/22 07:48:08;;;;;;;20.50;15.80;;;;;;;5.50;100.00;101280.26;108980;1253;59005;-58
2024/02/22 07:50:36;;;;;;;21.70;15.60;;;;;;;5.56;100.00;101292.52;109005;1254;73021;-58
2024/02/22 07:53:04;;;;;;;22.70;14.30;;;;;;;5.64;100.00;101298.19;109169;1254;66210;-58
2024/02/22 07:55:32;;;;;;;22.80;18.70;;;;;;;5.72;100.00;101301.71;109082;1259;73341;-58
2024/02/22 07:58:00;;;;;;;24.90;19.40;;;;;;;5.81;100.00;101308.80;108984;1255;58839;-58
2024/02/22 08:00:27;;;;;;;21.80;15.20;;;;;;;5.91;100.00;101316.63;106174;1258;60796;-58
2024/02/22 08:02:54;;;;;;;18.30;15.30;;;;;;;6.01;100.00;101323.17;106103;1260;72623;-59
2024/02/22 08:05:22;;;;;;;21.00;18.60;;;;;;;6.10;100.00;101330.09;106093;1260;67197;-59
2024/02/22 08:07:50;;;;;;;22.50;19.50;;;;;;;6.19;100.00;101337.17;108566;1258;71659;-60
2024/02/22 08:10:18;;;;;;;22.20;16.60;;;;;;;6.27;100.00;101344.09;106029;1259;60533;-59
2024/02/22 08:12:45;;;;;;;19.90;15.20;;;;;;;6.33;100.00;101350.65;105912;1260;244525;-60
2024/02/22 08:17:31;;;;;;;27.50;17.90;;;;;;;6.40;100.00;101426.20;102851;1292;600221;-58
2024/02/22 08:19:59;;;;;;;21.20;16.10;;;;;;;6.39;100.00;101502.16;105302;1272;60207;-59
2024/02/22 08:22:27;;;;;;;20.00;15.90;;;;;;;6.39;100.00;101483.08;106040;1253;61715;-60
2024/02/22 08:24:54;;;;;;;18.20;15.50;;;;;;;6.38;100.00;101466.88;106055;1254;72929;-60
2024/02/22 08:27:22;;;;;;;18.80;15.60;;;;;;;6.37;100.00;101457.80;106019;1253;67141;-59
2024/02/22 08:29:50;;;;;;;21.90;15.70;;;;;;;6.37;100.00;101454.94;105989;1260;73151;-59
2024/02/22 08:32:18;;;;;;;20.40;14.30;;;;;;;6.40;100.00;101453.31;107224;1255;134164;-60
2024/02/22 08:34:46;;;;;;;17.70;14.30;;;;;;;6.44;100.00;101449.72;106276;1255;60106;-58
2024/02/22 08:37:13;;;;;;;21.30;16.10;;;;;;;6.52;100.00;101449.34;106234;1256;71390;-59
2024/02/22 08:39:41;;;;;;;19.20;15.10;;;;;;;6.59;100.00;101452.33;106244;1257;66845;-59
2024/02/22 08:42:08;;;;;;;18.90;15.40;;;;;;;6.68;100.00;101452.64;106245;1256;72708;-58
2024/02/22 08:44:35;;;;;;;15.30;13.70;;;;;;;6.77;100.00;101458.48;106215;1265;60470;-60
2024/02/22 08:47:03;;;;;;;17.30;13.60;;;;;;;6.84;100.00;101463.96;106157;1256;60619;-59
2024/02/22 08:49:32;;;;;;;20.90;16.10;;;;;;;6.90;100.00;101469.29;106252;1251;73185;-59
2024/02/22 08:52:04;;;;;;;17.90;15.90;;;;;;;6.94;100.00;101476.58;106349;1251;65948;-60
2024/02/22 08:54:32;;;;;;;17.70;15.40;;;;;;;6.96;100.00;101476.57;106383;1254;73438;-56
2024/02/22 08:56:59;;;;;;;15.60;14.00;;;;;;;6.99;100.00;101481.35;106486;1253;60935;-58
2024/02/22 08:59:28;;;;;;;23.60;16.80;;;;;;;7.01;100.00;101479.74;106151;1256;59750;-60
2024/02/22 09:01:55;;;;;;;22.40;16.30;;;;;;;7.04;100.00;101481.16;106187;1250;71894;-59
2024/02/22 09:04:26;;;;;;;18.90;16.50;;;;;;;7.07;100.00;101485.05;106191;1256;66260;-57
2024/02/22 09:06:54;;;;;;;18.80;15.80;;;;;;;7.10;100.00;101489.15;106397;1257;71609;-57
2024/02/22 09:09:22;;;;;;;23.30;16.20;;;;;;;7.13;100.00;101489.31;106057;1255;60008;-57
2024/02/22 09:11:49;;;;;;;23.10;17.00;;;;;;;7.18;100.00;101490.16;106230;1258;60097;-58
2024/02/22 09:14:17;;;;;;;22.00;16.60;;;;;;;7.23;100.00;101496.56;106421;1255;71888;-57
2024/02/22 09:16:45;;;;;;;27.30;18.80;;;;;;;7.29;100.00;101498.67;106177;1263;67315;-58
2024/02/22 09:19:12;;;;;;;19.30;17.30;;;;;;;7.33;100.00;101506.66;106051;1257;73364;-59
2024/02/22 09:21:39;;;;;;;23.00;17.40;;;;;;;7.38;100.00;101503.41;106010;1253;62614;-60
2024/02/22 09:24:07;;;;;;;20.00;17.10;;;;;;;7.43;100.00;101507.48;106000;1256;61310;-60
2024/02/22 09:26:35;;;;;;;21.80;17.80;;;;;;;7.47;100.00;101514.79;105957;1258;73092;-59
2024/02/22 09:29:03;;;;;;;23.10;17.10;;;;;;;7.51;100.00;101521.70;106064;1253;65170;-58
2024/02/22 09:31:30;;;;;;;20.30;17.70;;;;;;;7.55;100.00;101526.69;106146;1254;70877;-58
2024/02/22 09:34:00;;;;;;;18.90;16.70;;;;;;;7.62;100.00;101530.20;106002;1259;60125;-58
2024/02/22 09:36:28;;;;;;;22.40;19.10;;;;;;;7.71;100.00;101539.08;106099;1253;62805;-59
2024/02/22 09:38:55;;;;;;;23.10;18.30;;;;;;;7.78;100.00;101539.54;106126;1259;71942;-59
2024/02/22 09:41:22;;;;;;;34.50;29.60;;;;;;;7.86;100.00;101548.77;106064;1260;69106;-58
2024/02/22 09:43:51;;;;;;;31.70;25.90;;;;;;;7.93;100.00;101556.20;106048;1254;72646;-58
2024/02/22 09:46:19;;;;;;;27.60;22.00;;;;;;;8.00;100.00;101562.77;106139;1253;61005;-58
2024/02/22 09:48:46;;;;;;;33.00;26.30;;;;;;;8.09;100.00;101573.58;106074;1259;60117;-58
2024/02/22 09:51:14;;;;;;;49.40;38.20;;;;;;;8.18;100.00;101582.44;106060;1254;73102;-58
2024/02/22 09:53:45;;;;;;;67.30;50.90;;;;;;;8.27;100.00;101590.77;106035;1259;67370;-58
2024/02/22 09:56:16;;;;;;;38.10;27.50;;;;;;;8.34;100.00;101600.20;106206;1261;71086;-57
2024/02/22 09:58:50;;;;;;;29.90;22.80;;;;;;;8.40;100.00;101608.73;107740;1255;62144;-58
2024/02/22 10:01:18;;;;;;;70.20;48.50;;;;;;;8.46;100.00;101620.83;106542;1254;60117;-57
2024/02/22 10:03:45;;;;;;;70.50;47.30;;;;;;;8.52;100.00;101619.15;106274;1258;73124;-57
2024/02/22 10:06:20;;;;;;;47.20;31.90;;;;;;;8.58;100.00;101623.93;106111;1259;65787;-57
2024/02/22 10:08:48;;;;;;;;;;;;;;;8.65;100.00;101638.73;106083;1257;72963;-58
2024/02/22 10:11:19;;;;;;;27.20;21.30;;;;;;;8.69;100.00;101637.58;106060;1254;59651;-57
2024/02/22 10:13:47;;;;;;;30.00;23.50;;;;;;;8.73;100.00;101647.77;106017;1261;61079;-58
2024/02/22 10:16:15;;;;;;;34.90;26.60;;;;;;;8.77;100.00;101650.74;105970;1259;71613;-58
2024/02/22 10:18:42;;;;;;;35.90;25.20;;;;;;;8.81;100.00;101655.19;106124;1258;65158;-58
2024/02/22 10:21:14;;;;;;;28.50;22.30;;;;;;;8.84;100.00;101661.95;106235;1255;71464;-57
2024/02/22 10:23:47;;;;;;;21.90;19.20;;;;;;;8.88;100.00;101671.40;106821;1253;61492;-58
2024/02/22 10:26:16;;;;;;;20.60;17.40;;;;;;;8.90;100.00;101675.86;106066;1253;60096;-58
2024/02/22 10:29:06;;;;;;;23.70;17.50;;;;;;;8.91;100.00;101672.64;106250;1258;71268;-59
2024/02/22 10:31:40;;;;;;;25.30;18.60;;;;;;;8.90;100.00;101699.85;106858;1254;65779;-58
2024/02/22 10:34:08;;;;;;;21.40;17.40;;;;;;;8.91;100.00;101691.07;106057;1255;71921;-58
2024/02/22 10:36:36;;;;;;;20.50;17.50;;;;;;;8.93;100.00;101691.39;106313;1256;60120;-59
2024/02/22 10:39:03;;;;;;;23.20;17.10;;;;;;;8.97;100.00;101696.02;106195;1258;60170;-56
2024/02/22 10:41:31;;;;;;;19.40;17.10;;;;;;;9.00;100.00;101698.50;106870;1254;73515;-58
2024/02/22 10:43:58;;;;;;;21.40;17.50;;;;;;;9.03;100.00;101699.52;105944;1259;65757;-58
2024/02/22 10:46:27;;;;;;;20.40;16.90;;;;;;;9.06;100.00;101705.94;108841;1253;70795;-58
2024/02/22 10:48:54;;;;;;;20.20;17.30;;;;;;;9.11;100.00;101711.61;108182;1255;60680;-58
2024/02/22 10:51:22;;;;;;;24.50;17.80;;;;;;;9.16;100.00;101713.71;105869;1261;59803;-59
2024/02/22 10:53:53;;;;;;;26.90;20.10;;;;;;;9.23;100.00;101724.20;106012;1253;73228;-57
2024/02/22 10:56:24;;;;;;;27.80;20.70;;;;;;;9.30;100.00;101732.89;106826;1258;65707;-58
2024/02/22 10:58:54;;;;;;;22.20;18.60;;;;;;;9.38;100.00;101744.45;108552;1254;72880;-58
2024/02/22 11:01:21;;;;;;;26.30;20.70;;;;;;;9.44;100.00;101746.35;109166;1255;60532;-58
2024/02/22 11:03:48;;;;;;;29.80;24.00;;;;;;;9.47;100.00;101752.76;109060;1253;58798;-58
2024/02/22 11:06:19;;;;;;;27.90;21.50;;;;;;;9.50;100.00;101753.98;109058;1256;71976;-57
2024/02/22 11:08:57;;;;;;;20.10;16.20;;;;;;;9.55;100.00;101764.84;109065;1258;67837;-58
2024/02/22 11:11:26;;;;;;;21.60;18.20;;;;;;;9.63;100.00;101785.54;109115;1253;73190;-58
2024/02/22 11:14:01;;;;;;;20.90;18.40;;;;;;;9.70;100.00;101785.09;109041;1253;59549;-57
2024/02/22 11:16:40;;;;;;;24.20;20.20;;;;;;;9.73;100.00;101798.52;109197;1256;58749;-57